sensor_id;sensor_type;location;lat;lon;timestamp;temperature;humidity
61374;DHT22;47242;48.158;-1.586;2024-02-15T05:31:17;12.60;85.50
61374;DHT22;47242;48.158;-1.586;2024-02-15T05:33:46;12.60;85.40
61374;DHT22;47242;48.158;-1.586;2024-02-15T05:36:16;12.50;85.40
61374;DHT22;47242;48.158;-1.586;2024-02-15T05:38:49;12.50;85.50
61374;DHT22;47242;48.158;-1.586;2024-02-15T05:41:15;12.50;85.40
61374;DHT22;47242;48.158;-1.586;2024-02-15T05:43:41;12.60;85.30
61374;DHT22;47242;48.158;-1.586;2024-02-15T05:46:08;12.50;85.30
61374;DHT22;47242;48.158;-1.586;2024-02-15T05:48:35;12.50;85.30
61374;DHT22;47242;48.158;-1.586;2024-02-15T05:51:03;12.50;85.30
61374;DHT22;47242;48.158;-1.586;2024-02-15T05:53:29;12.50;85.20
61374;DHT22;47242;48.158;-1.586;2024-02-15T05:55:55;12.50;85.20
61374;DHT22;47242;48.158;-1.586;2024-02-15T05:58:23;12.50;85.30
61374;DHT22;47242;48.158;-1.586;2024-02-15T06:00:49;12.50;85.20
61374;DHT22;47242;48.158;-1.586;2024-02-15T06:03:19;12.50;85.10
61374;DHT22;47242;48.158;-1.586;2024-02-15T06:05:48;12.50;85.00
61374;DHT22;47242;48.158;-1.586;2024-02-15T06:08:14;12.50;84.90
61374;DHT22;47242;48.158;-1.586;2024-02-15T06:10:40;12.50;84.90
61374;DHT22;47242;48.158;-1.586;2024-02-15T06:13:06;12.50;84.70
61374;DHT22;47242;48.158;-1.586;2024-02-15T06:15:34;12.50;84.70
61374;DHT22;47242;48.158;-1.586;2024-02-15T06:18:00;12.50;84.70
61374;DHT22;47242;48.158;-1.586;2024-02-15T06:20:25;12.50;84.60
61374;DHT22;47242;48.158;-1.586;2024-02-15T06:22:54;12.50;84.60
61374;DHT22;47242;48.158;-1.586;2024-02-15T06:25:20;12.40;84.50
61374;DHT22;47242;48.158;-1.586;2024-02-15T06:27:47;12.50;84.70
61374;DHT22;47242;48.158;-1.586;2024-02-15T06:30:13;12.50;84.70
61374;DHT22;47242;48.158;-1.586;2024-02-15T06:33:17;12.40;84.60
61374;DHT22;47242;48.158;-1.586;2024-02-15T06:36:05;12.40;84.70
61374;DHT22;47242;48.158;-1.586;2024-02-15T06:38:49;12.30;84.70
61374;DHT22;47242;48.158;-1.586;2024-02-15T06:41:33;12.30;84.70
61374;DHT22;47242;48.158;-1.586;2024-02-15T06:43:59;12.30;84.70
61374;DHT22;47242;48.158;-1.586;2024-02-15T06:46:25;12.30;84.70
61374;DHT22;47242;48.158;-1.586;2024-02-15T06:48:51;12.30;84.70
61374;DHT22;47242;48.158;-1.586;2024-02-15T06:51:18;12.30;84.70
61374;DHT22;47242;48.158;-1.586;2024-02-15T06:53:44;12.30;84.80
61374;DHT22;47242;48.158;-1.586;2024-02-15T06:56:10;12.30;84.80
61374;DHT22;47242;48.158;-1.586;2024-02-15T06:58:36;12.30;84.60
61374;DHT22;47242;48.158;-1.586;2024-02-15T07:01:02;12.30;84.70
61374;DHT22;47242;48.158;-1.586;2024-02-15T07:03:31;12.30;84.60
61374;DHT22;47242;48.158;-1.586;2024-02-15T07:05:57;12.30;84.70
61374;DHT22;47242;48.158;-1.586;2024-02-15T07:08:23;12.30;84.70
61374;DHT22;47242;48.158;-1.586;2024-02-15T07:10:52;12.30;84.80
61374;DHT22;47242;48.158;-1.586;2024-02-15T07:13:18;12.30;84.70
61374;DHT22;47242;48.158;-1.586;2024-02-15T07:15:45;12.30;84.70
61374;DHT22;47242;48.158;-1.586;2024-02-15T07:18:12;12.20;84.50
61374;DHT22;47242;48.158;-1.586;2024-02-15T07:20:41;12.20;84.50
61374;DHT22;47242;48.158;-1.586;2024-02-15T07:23:07;12.30;84.50
61374;DHT22;47242;48.158;-1.586;2024-02-15T07:25:32;12.30;84.40
61374;DHT22;47242;48.158;-1.586;2024-02-15T07:27:58;12.30;84.40
61374;DHT22;47242;48.158;-1.586;2024-02-15T07:30:24;12.30;84.30
61374;DHT22;47242;48.158;-1.586;2024-02-15T07:32:50;12.30;84.10
61374;DHT22;47242;48.158;-1.586;2024-02-15T07:35:15;12.30;84.10
61374;DHT22;47242;48.158;-1.586;2024-02-15T07:37:55;12.30;83.90
61374;DHT22;47242;48.158;-1.586;2024-02-15T07:40:23;12.30;83.80
61374;DHT22;47242;48.158;-1.586;2024-02-15T07:42:53;12.40;83.70
61374;DHT22;47242;48.158;-1.586;2024-02-15T07:45:18;12.40;83.50
61374;DHT22;47242;48.158;-1.586;2024-02-15T07:47:44;12.40;83.30
61374;DHT22;47242;48.158;-1.586;2024-02-15T07:50:10;12.50;83.20
61374;DHT22;47242;48.158;-1.586;2024-02-15T07:52:38;12.50;83.10
61374;DHT22;47242;48.158;-1.586;2024-02-15T07:55:04;12.50;83.00
61374;DHT22;47242;48.158;-1.586;2024-02-15T07:57:34;12.50;82.80
61374;DHT22;47242;48.158;-1.586;2024-02-15T08:00:00;12.60;82.80
61374;DHT22;47242;48.158;-1.586;2024-02-15T08:02:25;12.70;82.50
61374;DHT22;47242;48.158;-1.586;2024-02-15T08:04:54;12.70;82.50
61374;DHT22;47242;48.158;-1.586;2024-02-15T08:07:20;12.70;82.10
61374;DHT22;47242;48.158;-1.586;2024-02-15T08:09:46;12.80;82.20
61374;DHT22;47242;48.158;-1.586;2024-02-15T08:12:16;12.80;82.00
61374;DHT22;47242;48.158;-1.586;2024-02-15T08:14:42;12.80;82.00
61374;DHT22;47242;48.158;-1.586;2024-02-15T08:17:08;12.80;81.80
61374;DHT22;47242;48.158;-1.586;2024-02-15T08:19:34;12.90;81.70
61374;DHT22;47242;48.158;-1.586;2024-02-15T08:22:05;12.90;81.60
61374;DHT22;47242;48.158;-1.586;2024-02-15T08:24:31;12.90;81.40
61374;DHT22;47242;48.158;-1.586;2024-02-15T08:26:56;13.00;81.40
61374;DHT22;47242;48.158;-1.586;2024-02-15T08:29:24;13.00;81.20
61374;DHT22;47242;48.158;-1.586;2024-02-15T08:31:50;13.00;81.20
61374;DHT22;47242;48.158;-1.586;2024-02-15T08:34:16;13.00;81.10
61374;DHT22;47242;48.158;-1.586;2024-02-15T08:36:44;12.90;81.30
61374;DHT22;47242;48.158;-1.586;2024-02-15T08:39:09;12.90;81.30
61374;DHT22;47242;48.158;-1.586;2024-02-15T08:41:38;13.00;81.30
61374;DHT22;47242;48.158;-1.586;2024-02-15T08:44:04;13.00;81.10
61374;DHT22;47242;48.158;-1.586;2024-02-15T08:46:34;13.00;80.90
61374;DHT22;47242;48.158;-1.586;2024-02-15T08:49:01;13.20;80.90
61374;DHT22;47242;48.158;-1.586;2024-02-15T08:51:31;13.20;80.70
61374;DHT22;47242;48.158;-1.586;2024-02-15T08:53:58;13.20;80.30
61374;DHT22;47242;48.158;-1.586;2024-02-15T08:56:25;13.20;80.50
61374;DHT22;47242;48.158;-1.586;2024-02-15T08:58:51;13.30;80.50
61374;DHT22;47242;48.158;-1.586;2024-02-15T09:01:16;13.30;80.20
61374;DHT22;47242;48.158;-1.586;2024-02-15T09:03:42;13.40;80.10
61374;DHT22;47242;48.158;-1.586;2024-02-15T09:06:08;13.40;80.10
61374;DHT22;47242;48.158;-1.586;2024-02-15T09:08:34;13.50;80.00
61374;DHT22;47242;48.158;-1.586;2024-02-15T09:10:59;13.50;79.90
61374;DHT22;47242;48.158;-1.586;2024-02-15T09:13:25;13.60;79.60
61374;DHT22;47242;48.158;-1.586;2024-02-15T09:15:51;13.60;79.50
61374;DHT22;47242;48.158;-1.586;2024-02-15T09:18:16;13.60;79.30
61374;DHT22;47242;48.158;-1.586;2024-02-15T09:20:48;13.60;79.40
61374;DHT22;47242;48.158;-1.586;2024-02-15T09:23:14;13.60;79.60
61374;DHT22;47242;48.158;-1.586;2024-02-15T09:25:41;13.60;79.50
61374;DHT22;47242;48.158;-1.586;2024-02-15T09:28:09;13.70;79.10
61374;DHT22;47242;48.158;-1.586;2024-02-15T09:30:35;13.70;79.40
61374;DHT22;47242;48.158;-1.586;2024-02-15T09:33:01;13.80;79.00
61374;DHT22;47242;48.158;-1.586;2024-02-15T09:35:30;14.00;78.70
61374;DHT22;47242;48.158;-1.586;2024-02-15T09:37:56;14.20;78.00
61374;DHT22;47242;48.158;-1.586;2024-02-15T09:40:22;14.50;77.40
61374;DHT22;47242;48.158;-1.586;2024-02-15T09:42:52;14.60;76.40
61374;DHT22;47242;48.158;-1.586;2024-02-15T09:45:18;14.80;76.20
61374;DHT22;47242;48.158;-1.586;2024-02-15T09:47:46;14.90;75.60
61374;DHT22;47242;48.158;-1.586;2024-02-15T09:50:16;15.00;76.00
61374;DHT22;47242;48.158;-1.586;2024-02-15T09:52:52;15.40;74.20
61374;DHT22;47242;48.158;-1.586;2024-02-15T09:55:20;16.20;73.10
61374;DHT22;47242;48.158;-1.586;2024-02-15T09:57:49;16.40;71.20
61374;DHT22;47242;48.158;-1.586;2024-02-15T10:00:16;16.30;70.90
61374;DHT22;47242;48.158;-1.586;2024-02-15T10:02:47;16.70;70.30
61374;DHT22;47242;48.158;-1.586;2024-02-15T10:05:13;16.90;69.30
61374;DHT22;47242;48.158;-1.586;2024-02-15T10:07:40;16.60;69.60
61374;DHT22;47242;48.158;-1.586;2024-02-15T10:10:22;16.30;70.80
61374;DHT22;47242;48.158;-1.586;2024-02-15T10:12:49;15.90;71.20
61374;DHT22;47242;48.158;-1.586;2024-02-15T10:15:36;15.70;72.40
61374;DHT22;47242;48.158;-1.586;2024-02-15T10:18:04;15.70;72.90
61374;DHT22;47242;48.158;-1.586;2024-02-15T10:20:30;15.60;73.10
61374;DHT22;47242;48.158;-1.586;2024-02-15T10:25:28;15.40;73.30
61374;DHT22;47242;48.158;-1.586;2024-02-15T10:28:14;15.40;73.90
61374;DHT22;47242;48.158;-1.586;2024-02-15T10:30:45;15.30;74.10
61374;DHT22;47242;48.158;-1.586;2024-02-15T10:33:26;15.40;74.40
61374;DHT22;47242;48.158;-1.586;2024-02-15T10:36:07;15.50;74.60
61374;DHT22;47242;48.158;-1.586;2024-02-15T10:38:33;15.40;74.20
61374;DHT22;47242;48.158;-1.586;2024-02-15T10:41:06;15.40;74.40
61374;DHT22;47242;48.158;-1.586;2024-02-15T10:43:36;15.30;74.90
61374;DHT22;47242;48.158;-1.586;2024-02-15T10:46:05;15.30;74.90
61374;DHT22;47242;48.158;-1.586;2024-02-15T10:48:35;15.30;75.40
61374;DHT22;47242;48.158;-1.586;2024-02-15T10:51:03;15.40;75.00
61374;DHT22;47242;48.158;-1.586;2024-02-15T10:53:31;15.50;75.20
61374;DHT22;47242;48.158;-1.586;2024-02-15T10:56:22;15.60;74.60
61374;DHT22;47242;48.158;-1.586;2024-02-15T10:58:59;15.80;74.50
61374;DHT22;47242;48.158;-1.586;2024-02-15T11:01:27;15.90;74.20
61374;DHT22;47242;48.158;-1.586;2024-02-15T11:04:00;16.00;72.90
61374;DHT22;47242;48.158;-1.586;2024-02-15T11:06:27;16.00;73.00
61374;DHT22;47242;48.158;-1.586;2024-02-15T11:08:55;16.00;72.50
61374;DHT22;47242;48.158;-1.586;2024-02-15T11:11:21;15.90;72.50
61374;DHT22;47242;48.158;-1.586;2024-02-15T11:13:47;15.90;72.60
61374;DHT22;47242;48.158;-1.586;2024-02-15T11:16:42;16.00;72.60
61374;DHT22;47242;48.158;-1.586;2024-02-15T11:19:09;16.10;72.60
61374;DHT22;47242;48.158;-1.586;2024-02-15T11:21:54;16.30;72.70
61374;DHT22;47242;48.158;-1.586;2024-02-15T11:24:32;16.50;72.10
61374;DHT22;47242;48.158;-1.586;2024-02-15T11:27:02;16.50;71.40
61374;DHT22;47242;48.158;-1.586;2024-02-15T11:29:57;16.60;71.30
61374;DHT22;47242;48.158;-1.586;2024-02-15T11:32:39;16.60;71.30
61374;DHT22;47242;48.158;-1.586;2024-02-15T11:35:09;16.70;71.70
61374;DHT22;47242;48.158;-1.586;2024-02-15T11:40:28;16.70;71.20
61374;DHT22;47242;48.158;-1.586;2024-02-15T11:42:56;16.80;70.70
61374;DHT22;47242;48.158;-1.586;2024-02-15T11:45:25;16.70;70.60
61374;DHT22;47242;48.158;-1.586;2024-02-15T11:47:53;16.70;71.20
61374;DHT22;47242;48.158;-1.586;2024-02-15T11:50:20;16.70;71.30
61374;DHT22;47242;48.158;-1.586;2024-02-15T11:52:47;16.50;71.10
61374;DHT22;47242;48.158;-1.586;2024-02-15T11:55:18;16.60;71.30
61374;DHT22;47242;48.158;-1.586;2024-02-15T11:57:57;16.70;71.20
61374;DHT22;47242;48.158;-1.586;2024-02-15T12:00:36;16.80;71.00
61374;DHT22;47242;48.158;-1.586;2024-02-15T12:03:21;16.60;71.10
61374;DHT22;47242;48.158;-1.586;2024-02-15T12:06:05;16.80;71.50
61374;DHT22;47242;48.158;-1.586;2024-02-15T12:08:52;16.80;71.20
61374;DHT22;47242;48.158;-1.586;2024-02-15T12:11:37;16.90;71.00
61374;DHT22;47242;48.158;-1.586;2024-02-15T12:14:21;17.00;70.60
61374;DHT22;47242;48.158;-1.586;2024-02-15T12:17:10;16.90;70.90
61374;DHT22;47242;48.158;-1.586;2024-02-15T12:19:55;16.90;71.40
61374;DHT22;47242;48.158;-1.586;2024-02-15T12:22:35;16.80;71.70
61374;DHT22;47242;48.158;-1.586;2024-02-15T12:25:02;16.60;72.00
61374;DHT22;47242;48.158;-1.586;2024-02-15T12:27:35;16.60;72.50
61374;DHT22;47242;48.158;-1.586;2024-02-15T12:30:01;16.60;73.00
61374;DHT22;47242;48.158;-1.586;2024-02-15T12:32:27;16.60;72.20
61374;DHT22;47242;48.158;-1.586;2024-02-15T12:35:09;16.80;72.20
61374;DHT22;47242;48.158;-1.586;2024-02-15T12:37:36;16.90;72.40
61374;DHT22;47242;48.158;-1.586;2024-02-15T12:40:17;16.90;72.40
61374;DHT22;47242;48.158;-1.586;2024-02-15T12:42:44;17.00;72.20
61374;DHT22;47242;48.158;-1.586;2024-02-15T12:45:17;17.00;72.20
61374;DHT22;47242;48.158;-1.586;2024-02-15T12:47:52;17.00;72.10
61374;DHT22;47242;48.158;-1.586;2024-02-15T12:50:19;17.00;72.00
61374;DHT22;47242;48.158;-1.586;2024-02-15T12:52:47;17.10;72.30
61374;DHT22;47242;48.158;-1.586;2024-02-15T12:55:16;17.10;71.90
61374;DHT22;47242;48.158;-1.586;2024-02-15T12:57:44;17.00;72.10
61374;DHT22;47242;48.158;-1.586;2024-02-15T13:00:14;17.00;72.40
61374;DHT22;47242;48.158;-1.586;2024-02-15T13:02:52;16.90;72.40
61374;DHT22;47242;48.158;-1.586;2024-02-15T13:05:19;16.90;72.40
61374;DHT22;47242;48.158;-1.586;2024-02-15T13:07:52;16.80;72.60
61374;DHT22;47242;48.158;-1.586;2024-02-15T13:10:18;16.80;72.90
61374;DHT22;47242;48.158;-1.586;2024-02-15T13:12:47;16.80;72.50
61374;DHT22;47242;48.158;-1.586;2024-02-15T13:15:14;16.90;72.10
61374;DHT22;47242;48.158;-1.586;2024-02-15T13:17:43;16.90;72.70
61374;DHT22;47242;48.158;-1.586;2024-02-15T13:20:14;17.00;72.60
61374;DHT22;47242;48.158;-1.586;2024-02-15T13:22:42;17.10;72.70
61374;DHT22;47242;48.158;-1.586;2024-02-15T13:25:09;17.20;72.30
61374;DHT22;47242;48.158;-1.586;2024-02-15T13:27:36;17.20;72.50
61374;DHT22;47242;48.158;-1.586;2024-02-15T13:30:05;17.20;73.10
61374;DHT22;47242;48.158;-1.586;2024-02-15T13:32:38;17.30;72.70
61374;DHT22;47242;48.158;-1.586;2024-02-15T13:35:07;17.40;72.70
61374;DHT22;47242;48.158;-1.586;2024-02-15T13:37:47;17.40;72.50
61374;DHT22;47242;48.158;-1.586;2024-02-15T13:40:13;17.30;71.80
61374;DHT22;47242;48.158;-1.586;2024-02-15T13:42:46;17.30;72.10
61374;DHT22;47242;48.158;-1.586;2024-02-15T13:45:20;17.30;72.30
61374;DHT22;47242;48.158;-1.586;2024-02-15T13:47:50;17.20;72.10
61374;DHT22;47242;48.158;-1.586;2024-02-15T13:50:16;17.30;72.60
61374;DHT22;47242;48.158;-1.586;2024-02-15T13:52:43;17.30;72.40
61374;DHT22;47242;48.158;-1.586;2024-02-15T13:55:13;17.30;72.80
61374;DHT22;47242;48.158;-1.586;2024-02-15T13:57:40;17.40;72.70
61374;DHT22;47242;48.158;-1.586;2024-02-15T14:00:11;17.50;72.80
61374;DHT22;47242;48.158;-1.586;2024-02-15T14:02:53;17.70;72.20
61374;DHT22;47242;48.158;-1.586;2024-02-15T14:05:20;17.70;72.10
61374;DHT22;47242;48.158;-1.586;2024-02-15T14:07:47;17.80;72.10
61374;DHT22;47242;48.158;-1.586;2024-02-15T14:10:15;17.90;71.50
61374;DHT22;47242;48.158;-1.586;2024-02-15T14:12:40;17.90;71.70
61374;DHT22;47242;48.158;-1.586;2024-02-15T14:15:06;17.90;71.80
61374;DHT22;47242;48.158;-1.586;2024-02-15T14:17:32;17.80;71.70
61374;DHT22;47242;48.158;-1.586;2024-02-15T14:19:59;17.80;71.80
61374;DHT22;47242;48.158;-1.586;2024-02-15T14:22:26;17.70;72.00
61374;DHT22;47242;48.158;-1.586;2024-02-15T14:24:54;17.70;72.10
61374;DHT22;47242;48.158;-1.586;2024-02-15T14:27:21;17.60;72.00
61374;DHT22;47242;48.158;-1.586;2024-02-15T14:29:46;17.60;72.80
61374;DHT22;47242;48.158;-1.586;2024-02-15T14:32:32;17.60;72.60
61374;DHT22;47242;48.158;-1.586;2024-02-15T14:35:16;17.50;72.10
61374;DHT22;47242;48.158;-1.586;2024-02-15T14:37:43;17.60;72.60
61374;DHT22;47242;48.158;-1.586;2024-02-15T14:40:10;17.70;72.10
61374;DHT22;47242;48.158;-1.586;2024-02-15T14:42:35;17.80;71.70
61374;DHT22;47242;48.158;-1.586;2024-02-15T14:45:03;17.70;71.00
61374;DHT22;47242;48.158;-1.586;2024-02-15T14:47:29;17.70;71.10
61374;DHT22;47242;48.158;-1.586;2024-02-15T14:49:55;17.60;71.10
61374;DHT22;47242;48.158;-1.586;2024-02-15T14:52:22;17.60;71.10
61374;DHT22;47242;48.158;-1.586;2024-02-15T14:54:47;17.60;71.30
61374;DHT22;47242;48.158;-1.586;2024-02-15T14:57:13;17.70;71.50
61374;DHT22;47242;48.158;-1.586;2024-02-15T14:59:38;17.80;71.20
61374;DHT22;47242;48.158;-1.586;2024-02-15T15:02:06;17.80;70.80
61374;DHT22;47242;48.158;-1.586;2024-02-15T15:04:34;17.80;71.00
61374;DHT22;47242;48.158;-1.586;2024-02-15T15:07:20;17.70;71.40
61374;DHT22;47242;48.158;-1.586;2024-02-15T15:10:04;17.70;70.90
61374;DHT22;47242;48.158;-1.586;2024-02-15T15:12:48;17.80;71.10
61374;DHT22;47242;48.158;-1.586;2024-02-15T15:15:14;17.70;71.30
61374;DHT22;47242;48.158;-1.586;2024-02-15T15:17:40;17.80;71.50
61374;DHT22;47242;48.158;-1.586;2024-02-15T15:20:06;17.80;71.70
61374;DHT22;47242;48.158;-1.586;2024-02-15T15:22:34;17.70;71.40
61374;DHT22;47242;48.158;-1.586;2024-02-15T15:25:02;17.60;71.70
61374;DHT22;47242;48.158;-1.586;2024-02-15T15:27:29;17.50;71.60
61374;DHT22;47242;48.158;-1.586;2024-02-15T15:29:55;17.40;71.60
61374;DHT22;47242;48.158;-1.586;2024-02-15T15:32:20;17.40;71.40
61374;DHT22;47242;48.158;-1.586;2024-02-15T15:34:46;17.40;71.60
61374;DHT22;47242;48.158;-1.586;2024-02-15T15:37:12;17.30;70.90
61374;DHT22;47242;48.158;-1.586;2024-02-15T15:39:38;17.30;70.70
61374;DHT22;47242;48.158;-1.586;2024-02-15T15:42:04;17.30;71.50
61374;DHT22;47242;48.158;-1.586;2024-02-15T15:44:33;17.30;71.90
61374;DHT22;47242;48.158;-1.586;2024-02-15T15:46:59;17.30;71.60
61374;DHT22;47242;48.158;-1.586;2024-02-15T15:49:25;17.20;71.90
61374;DHT22;47242;48.158;-1.586;2024-02-15T15:51:51;17.20;72.00
61374;DHT22;47242;48.158;-1.586;2024-02-15T15:54:18;17.20;72.10
61374;DHT22;47242;48.158;-1.586;2024-02-15T15:56:45;17.10;72.40
61374;DHT22;47242;48.158;-1.586;2024-02-15T15:59:12;17.00;72.40
61374;DHT22;47242;48.158;-1.586;2024-02-15T16:01:38;17.00;72.20
61374;DHT22;47242;48.158;-1.586;2024-02-15T16:04:06;16.90;72.40
61374;DHT22;47242;48.158;-1.586;2024-02-15T16:06:32;16.90;72.60
61374;DHT22;47242;48.158;-1.586;2024-02-15T16:08:59;16.90;72.70
61374;DHT22;47242;48.158;-1.586;2024-02-15T16:11:24;17.00;72.50
61374;DHT22;47242;48.158;-1.586;2024-02-15T16:13:50;17.00;72.30
61374;DHT22;47242;48.158;-1.586;2024-02-15T16:16:16;16.90;72.10
61374;DHT22;47242;48.158;-1.586;2024-02-15T16:18:42;16.80;72.30
61374;DHT22;47242;48.158;-1.586;2024-02-15T16:21:08;16.80;72.60
61374;DHT22;47242;48.158;-1.586;2024-02-15T16:23:33;16.80;72.50
61374;DHT22;47242;48.158;-1.586;2024-02-15T16:25:59;16.60;73.10
61374;DHT22;47242;48.158;-1.586;2024-02-15T16:28:25;16.50;73.10
61374;DHT22;47242;48.158;-1.586;2024-02-15T16:30:51;16.50;73.50
61374;DHT22;47242;48.158;-1.586;2024-02-15T16:33:16;16.50;73.30
61374;DHT22;47242;48.158;-1.586;2024-02-15T16:35:42;16.40;73.40
61374;DHT22;47242;48.158;-1.586;2024-02-15T16:38:07;16.40;73.90
61374;DHT22;47242;48.158;-1.586;2024-02-15T16:40:34;16.40;74.00
61374;DHT22;47242;48.158;-1.586;2024-02-15T16:43:00;16.40;74.20
61374;DHT22;47242;48.158;-1.586;2024-02-15T16:45:26;16.30;74.30
61374;DHT22;47242;48.158;-1.586;2024-02-15T16:47:53;16.30;74.10
61374;DHT22;47242;48.158;-1.586;2024-02-15T16:50:22;16.30;74.40
61374;DHT22;47242;48.158;-1.586;2024-02-15T16:52:48;16.20;74.40
61374;DHT22;47242;48.158;-1.586;2024-02-15T16:55:15;16.30;74.50
61374;DHT22;47242;48.158;-1.586;2024-02-15T16:57:41;16.20;74.40
61374;DHT22;47242;48.158;-1.586;2024-02-15T17:00:07;16.30;74.70
61374;DHT22;47242;48.158;-1.586;2024-02-15T17:02:40;16.20;74.70
61374;DHT22;47242;48.158;-1.586;2024-02-15T17:05:06;16.20;74.70
61374;DHT22;47242;48.158;-1.586;2024-02-15T17:07:33;16.20;74.80
61374;DHT22;47242;48.158;-1.586;2024-02-15T17:10:00;16.20;75.00
61374;DHT22;47242;48.158;-1.586;2024-02-15T17:12:26;16.10;75.10
61374;DHT22;47242;48.158;-1.586;2024-02-15T17:14:53;16.00;75.30
61374;DHT22;47242;48.158;-1.586;2024-02-15T17:17:19;16.00;75.60
61374;DHT22;47242;48.158;-1.586;2024-02-15T17:19:44;15.90;75.80
61374;DHT22;47242;48.158;-1.586;2024-02-15T17:22:11;15.80;75.90
61374;DHT22;47242;48.158;-1.586;2024-02-15T17:24:37;15.80;76.10
61374;DHT22;47242;48.158;-1.586;2024-02-15T17:27:06;15.80;76.20
61374;DHT22;47242;48.158;-1.586;2024-02-15T17:29:32;15.80;76.30
61374;DHT22;47242;48.158;-1.586;2024-02-15T17:31:57;15.70;76.50
61374;DHT22;47242;48.158;-1.586;2024-02-15T17:34:24;15.70;76.70
61374;DHT22;47242;48.158;-1.586;2024-02-15T17:36:50;15.70;76.70
61374;DHT22;47242;48.158;-1.586;2024-02-15T17:39:16;15.60;76.80
61374;DHT22;47242;48.158;-1.586;2024-02-15T17:41:42;15.60;76.90
61374;DHT22;47242;48.158;-1.586;2024-02-15T17:44:08;15.60;77.10
61374;DHT22;47242;48.158;-1.586;2024-02-15T17:46:34;15.50;77.10
61374;DHT22;47242;48.158;-1.586;2024-02-15T17:49:01;15.50;77.30
61374;DHT22;47242;48.158;-1.586;2024-02-15T17:51:27;15.50;77.40
61374;DHT22;47242;48.158;-1.586;2024-02-15T17:53:53;15.50;77.50
61374;DHT22;47242;48.158;-1.586;2024-02-15T17:56:22;15.50;77.60
61374;DHT22;47242;48.158;-1.586;2024-02-15T17:58:51;15.40;77.70
61374;DHT22;47242;48.158;-1.586;2024-02-15T18:01:17;15.30;77.80
61374;DHT22;47242;48.158;-1.586;2024-02-15T18:03:44;15.30;77.70
61374;DHT22;47242;48.158;-1.586;2024-02-15T18:06:09;15.30;77.70
61374;DHT22;47242;48.158;-1.586;2024-02-15T18:08:36;15.20;77.70
61374;DHT22;47242;48.158;-1.586;2024-02-15T18:11:02;15.20;77.80
61374;DHT22;47242;48.158;-1.586;2024-02-15T18:13:28;15.20;77.90
61374;DHT22;47242;48.158;-1.586;2024-02-15T18:15:55;15.20;78.00
61374;DHT22;47242;48.158;-1.586;2024-02-15T18:18:24;15.20;78.00
61374;DHT22;47242;48.158;-1.586;2024-02-15T18:20:51;15.20;77.90
61374;DHT22;47242;48.158;-1.586;2024-02-15T18:23:17;15.20;77.90
61374;DHT22;47242;48.158;-1.586;2024-02-15T18:25:46;15.10;77.90
61374;DHT22;47242;48.158;-1.586;2024-02-15T18:28:14;15.10;77.90
61374;DHT22;47242;48.158;-1.586;2024-02-15T18:30:40;15.10;77.80
61374;DHT22;47242;48.158;-1.586;2024-02-15T18:33:13;15.10;77.90
61374;DHT22;47242;48.158;-1.586;2024-02-15T18:35:44;15.10;77.90
61374;DHT22;47242;48.158;-1.586;2024-02-15T18:38:10;15.10;78.00
61374;DHT22;47242;48.158;-1.586;2024-02-15T18:40:37;15.00;78.00
61374;DHT22;47242;48.158;-1.586;2024-02-15T18:43:03;15.00;78.10
61374;DHT22;47242;48.158;-1.586;2024-02-15T18:45:30;15.00;78.10
61374;DHT22;47242;48.158;-1.586;2024-02-15T18:47:56;14.90;78.40
61374;DHT22;47242;48.158;-1.586;2024-02-15T18:50:23;14.90;78.40
61374;DHT22;47242;48.158;-1.586;2024-02-15T18:52:50;14.80;78.50
61374;DHT22;47242;48.158;-1.586;2024-02-15T18:55:16;14.90;78.50
61374;DHT22;47242;48.158;-1.586;2024-02-15T18:57:41;14.90;78.50
61374;DHT22;47242;48.158;-1.586;2024-02-15T19:00:11;14.80;78.60
61374;DHT22;47242;48.158;-1.586;2024-02-15T19:02:40;14.80;78.60
61374;DHT22;47242;48.158;-1.586;2024-02-15T19:05:06;14.80;78.70
61374;DHT22;47242;48.158;-1.586;2024-02-15T19:07:40;14.80;78.70
61374;DHT22;47242;48.158;-1.586;2024-02-15T19:10:06;14.80;78.70
61374;DHT22;47242;48.158;-1.586;2024-02-15T19:12:33;14.80;78.70
61374;DHT22;47242;48.158;-1.586;2024-02-15T19:14:59;14.80;78.70
61374;DHT22;47242;48.158;-1.586;2024-02-15T19:17:26;14.80;78.70
61374;DHT22;47242;48.158;-1.586;2024-02-15T19:19:52;14.80;78.80
61374;DHT22;47242;48.158;-1.586;2024-02-15T19:22:18;14.80;78.70
61374;DHT22;47242;48.158;-1.586;2024-02-15T19:24:44;14.80;78.70
61374;DHT22;47242;48.158;-1.586;2024-02-15T19:27:09;14.80;78.60
61374;DHT22;47242;48.158;-1.586;2024-02-15T19:29:36;14.80;78.60
61374;DHT22;47242;48.158;-1.586;2024-02-15T19:32:01;14.80;78.50
61374;DHT22;47242;48.158;-1.586;2024-02-15T19:34:27;14.80;78.40
61374;DHT22;47242;48.158;-1.586;2024-02-15T19:36:54;14.80;78.50
61374;DHT22;47242;48.158;-1.586;2024-02-15T19:39:19;14.80;78.50
61374;DHT22;47242;48.158;-1.586;2024-02-15T19:41:45;14.80;78.50
61374;DHT22;47242;48.158;-1.586;2024-02-15T19:44:11;14.80;78.50
61374;DHT22;47242;48.158;-1.586;2024-02-15T19:46:39;14.70;78.60
61374;DHT22;47242;48.158;-1.586;2024-02-15T19:49:07;14.70;78.60
61374;DHT22;47242;48.158;-1.586;2024-02-15T19:51:34;14.70;78.60
61374;DHT22;47242;48.158;-1.586;2024-02-15T19:54:00;14.70;78.80
61374;DHT22;47242;48.158;-1.586;2024-02-15T19:56:28;14.60;78.90
61374;DHT22;47242;48.158;-1.586;2024-02-15T19:58:59;14.60;78.80
61374;DHT22;47242;48.158;-1.586;2024-02-15T20:01:27;14.60;78.90
61374;DHT22;47242;48.158;-1.586;2024-02-15T20:03:54;14.60;78.80
61374;DHT22;47242;48.158;-1.586;2024-02-15T20:06:20;14.50;78.90
61374;DHT22;47242;48.158;-1.586;2024-02-15T20:08:49;14.50;79.00
61374;DHT22;47242;48.158;-1.586;2024-02-15T20:11:16;14.40;79.20
61374;DHT22;47242;48.158;-1.586;2024-02-15T20:13:42;14.40;79.10
61374;DHT22;47242;48.158;-1.586;2024-02-15T20:16:07;14.40;79.10
61374;DHT22;47242;48.158;-1.586;2024-02-15T20:18:34;14.30;79.30
61374;DHT22;47242;48.158;-1.586;2024-02-15T20:21:00;14.30;79.20
61374;DHT22;47242;48.158;-1.586;2024-02-15T20:23:26;14.30;79.30
61374;DHT22;47242;48.158;-1.586;2024-02-15T20:25:51;14.30;79.30
61374;DHT22;47242;48.158;-1.586;2024-02-15T20:28:17;14.30;79.40
61374;DHT22;47242;48.158;-1.586;2024-02-15T20:30:44;14.30;79.40
61374;DHT22;47242;48.158;-1.586;2024-02-15T20:33:10;14.30;79.30
61374;DHT22;47242;48.158;-1.586;2024-02-15T20:35:43;14.30;79.20
61374;DHT22;47242;48.158;-1.586;2024-02-15T20:38:10;14.30;79.30
61374;DHT22;47242;48.158;-1.586;2024-02-15T20:40:38;14.30;79.30
61374;DHT22;47242;48.158;-1.586;2024-02-15T20:43:04;14.30;79.20
61374;DHT22;47242;48.158;-1.586;2024-02-15T20:45:30;14.30;79.30
61374;DHT22;47242;48.158;-1.586;2024-02-15T20:47:56;14.30;79.20
61374;DHT22;47242;48.158;-1.586;2024-02-15T20:50:21;14.30;79.20
61374;DHT22;47242;48.158;-1.586;2024-02-15T20:52:47;14.30;79.30
61374;DHT22;47242;48.158;-1.586;2024-02-15T20:55:13;14.30;79.30
61374;DHT22;47242;48.158;-1.586;2024-02-15T20:57:39;14.30;79.50
61374;DHT22;47242;48.158;-1.586;2024-02-15T21:00:06;14.20;79.60